createdAt,value
2022-09-25T00:01:11.044Z,93.23
2022-09-25T00:03:39.251Z,93.01
2022-09-25T00:06:15.040Z,92.66
2022-09-25T00:08:43.297Z,93.39
2022-09-25T00:11:18.345Z,93.00
2022-09-25T00:13:50.034Z,93.52
2022-09-25T00:16:20.752Z,93.41
2022-09-25T00:19:07.547Z,93.51
2022-09-25T00:21:35.853Z,93.27
2022-09-25T00:24:06.467Z,93.67
2022-09-25T00:26:37.421Z,93.79
2022-09-25T00:29:06.374Z,93.54
2022-09-25T00:31:34.380Z,93.35
2022-09-25T00:34:03.921Z,93.42
2022-09-25T00:36:32.860Z,93.72
2022-09-25T00:39:00.826Z,93.81
2022-09-25T00:41:32.077Z,93.94
2022-09-25T00:44:02.460Z,93.99
2022-09-25T00:46:38.496Z,94.45
2022-09-25T00:49:16.733Z,94.05
2022-09-25T00:51:54.627Z,94.41
2022-09-25T00:54:37.057Z,94.87
2022-09-25T00:57:10.820Z,95.13
2022-09-25T00:59:41.637Z,94.81
2022-09-25T01:02:14.440Z,94.02
2022-09-25T01:04:46.262Z,93.52
2022-09-25T01:07:15.085Z,93.40
2022-09-25T01:09:42.479Z,93.64
2022-09-25T01:12:09.917Z,93.51
2022-09-25T01:14:39.521Z,93.69
2022-09-25T01:17:23.240Z,93.86
2022-09-25T01:20:39.780Z,94.49
2022-09-25T01:23:44.081Z,94.82
2022-09-25T01:26:15.595Z,94.59
2022-09-25T01:29:14.759Z,94.93
2022-09-25T01:31:54.191Z,94.86
2022-09-25T01:34:32.483Z,95.05
2022-09-25T01:37:13.803Z,95.45
2022-09-25T01:39:47.264Z,95.41
2022-09-25T01:42:23.139Z,95.23
2022-09-25T01:44:57.971Z,94.74
2022-09-25T01:47:28.994Z,95.09
2022-09-25T01:50:00.541Z,95.15
2022-09-25T01:52:40.878Z,94.79
2022-09-25T01:55:24.059Z,94.65
2022-09-25T01:58:05.736Z,94.65
2022-09-25T02:00:38.064Z,94.52
2022-09-25T02:03:18.366Z,95.21
2022-09-25T02:05:57.552Z,95.25
2022-09-25T02:08:34.223Z,95.25
2022-09-25T02:11:04.717Z,95.06
2022-09-25T02:13:50.657Z,94.85
2022-09-25T02:16:23.221Z,94.91
2022-09-25T02:19:20.577Z,94.59
2022-09-25T02:22:07.373Z,94.85
2022-09-25T02:24:45.558Z,95.91
2022-09-25T02:27:15.562Z,95.49
2022-09-25T02:29:43.351Z,95.45
2022-09-25T02:32:13.652Z,95.94
2022-09-25T02:34:41.877Z,96.03
2022-09-25T02:37:14.495Z,95.65
2022-09-25T02:39:44.986Z,96.13
2022-09-25T02:42:29.031Z,96.32
2022-09-25T02:45:02.500Z,96.55
2022-09-25T02:47:43.588Z,96.55
2022-09-25T02:50:26.734Z,96.51
2022-09-25T02:53:15.280Z,96.03
2022-09-25T02:56:04.685Z,96.21
2022-09-25T02:58:40.988Z,95.89
2022-09-25T03:01:12.680Z,95.74
2022-09-25T03:03:41.460Z,95.42
2022-09-25T03:06:10.546Z,95.36
2022-09-25T03:08:42.518Z,95.13
2022-09-25T03:11:16.253Z,96.01
2022-09-25T03:13:44.807Z,96.30
2022-09-25T03:16:31.480Z,96.36
2022-09-25T03:19:02.226Z,97.04
2022-09-25T03:21:29.940Z,97.27
2022-09-25T03:23:57.198Z,97.02
2022-09-25T03:26:25.476Z,97.02
2022-09-25T03:28:53.645Z,96.57
2022-09-25T03:31:21.794Z,96.22
2022-09-25T03:33:49.393Z,96.55
2022-09-25T03:36:20.830Z,96.40
2022-09-25T03:38:57.958Z,95.89
2022-09-25T03:41:28.142Z,96.05
2022-09-25T03:43:56.759Z,96.43
2022-09-25T03:46:29.684Z,96.80
2022-09-25T03:48:57.263Z,96.93
2022-09-25T03:51:25.804Z,96.27
2022-09-25T03:53:53.829Z,95.42
2022-09-25T03:56:24.472Z,95.23
2022-09-25T03:58:56.474Z,95.53
2022-09-25T04:01:25.032Z,95.49
2022-09-25T04:03:53.417Z,95.70
2022-09-25T04:06:24.502Z,95.94
2022-09-25T04:08:53.836Z,96.66
2022-09-25T04:11:25.075Z,96.99
2022-09-25T04:13:53.044Z,96.85
2022-09-25T04:16:23.991Z,96.76
2022-09-25T04:18:51.810Z,96.71
2022-09-25T04:21:19.269Z,96.54
2022-09-25T04:24:07.476Z,96.83
2022-09-25T04:26:35.834Z,96.49
2022-09-25T04:29:04.474Z,96.41
2022-09-25T04:31:32.689Z,96.68
2022-09-25T04:34:00.473Z,96.60
2022-09-25T04:36:27.967Z,96.19
2022-09-25T04:38:56.719Z,96.14
2022-09-25T04:41:24.783Z,96.48
2022-09-25T04:43:52.311Z,96.14
2022-09-25T04:46:22.596Z,96.17
2022-09-25T04:48:50.896Z,95.80
2022-09-25T04:51:19.421Z,95.60
2022-09-25T04:53:47.559Z,95.96
2022-09-25T04:56:16.634Z,95.99
2022-09-25T04:58:46.567Z,95.54
2022-09-25T05:01:14.083Z,94.49
2022-09-25T05:03:41.760Z,92.87
2022-09-25T05:06:09.895Z,93.26
2022-09-25T05:08:37.520Z,93.76
2022-09-25T05:11:05.088Z,93.84
2022-09-25T05:13:32.366Z,93.70
2022-09-25T05:15:59.906Z,93.71
2022-09-25T05:18:27.859Z,93.67
2022-09-25T05:20:55.411Z,93.47
2022-09-25T05:23:24.880Z,93.23
2022-09-25T05:26:02.671Z,92.47
2022-09-25T05:28:34.490Z,92.06
2022-09-25T05:31:04.018Z,91.73
2022-09-25T05:33:33.463Z,91.51
2022-09-25T05:36:02.586Z,91.12
2022-09-25T05:38:32.871Z,91.03
2022-09-25T05:41:05.199Z,91.05
2022-09-25T05:43:34.177Z,90.64
2022-09-25T05:46:01.921Z,89.77
2022-09-25T05:48:29.250Z,88.76
2022-09-25T05:50:57.651Z,88.29
2022-09-25T05:53:25.350Z,87.79
2022-09-25T05:56:00.374Z,87.55
2022-09-25T05:58:29.482Z,87.25
2022-09-25T06:01:00.928Z,86.79
2022-09-25T06:03:30.700Z,86.08
2022-09-25T06:06:01.722Z,85.92
2022-09-25T06:08:32.891Z,85.21
2022-09-25T06:11:03.687Z,84.48
2022-09-25T06:13:33.240Z,84.20
2022-09-25T06:16:01.200Z,83.39
2022-09-25T06:18:28.517Z,83.48
2022-09-25T06:21:04.726Z,82.36
2022-09-25T06:23:32.483Z,80.82
2022-09-25T06:26:04.271Z,80.09
2022-09-25T06:28:32.609Z,79.42
2022-09-25T06:31:01.782Z,79.04
2022-09-25T06:33:29.327Z,77.84
2022-09-25T06:35:56.535Z,77.81
2022-09-25T06:38:24.421Z,77.42
2022-09-25T06:40:51.681Z,77.30
2022-09-25T06:43:18.990Z,76.93
2022-09-25T06:45:47.945Z,76.25
2022-09-25T06:48:18.150Z,76.39
2022-09-25T06:50:52.888Z,76.58
2022-09-25T06:53:21.730Z,76.31
2022-09-25T06:55:49.730Z,76.75
2022-09-25T06:58:20.628Z,75.96
2022-09-25T07:00:52.187Z,76.02
2022-09-25T07:03:37.965Z,75.98
2022-09-25T07:06:07.531Z,75.44
2022-09-25T07:08:35.038Z,74.67
2022-09-25T07:11:02.414Z,73.77
2022-09-25T07:13:32.163Z,73.85
2022-09-25T07:16:08.560Z,73.20
2022-09-25T07:18:35.828Z,71.97
2022-09-25T07:21:05.976Z,72.13
2022-09-25T07:23:33.959Z,72.15
2022-09-25T07:26:13.845Z,71.59
2022-09-25T07:28:42.555Z,70.17
2022-09-25T07:31:21.704Z,69.82
2022-09-25T07:33:49.498Z,69.81
2022-09-25T07:36:17.970Z,69.31
2022-09-25T07:38:50.014Z,68.03
2022-09-25T07:41:18.590Z,68.30
2022-09-25T07:44:18.104Z,67.49
2022-09-25T07:46:46.894Z,66.43
2022-09-25T07:49:14.356Z,65.27
2022-09-25T07:51:41.697Z,64.73
2022-09-25T07:54:09.176Z,64.97
2022-09-25T07:56:38.468Z,64.94
2022-09-25T07:59:06.020Z,64.78
2022-09-25T08:01:33.332Z,64.54
2022-09-25T08:04:01.803Z,64.02
2022-09-25T08:06:29.133Z,63.79
2022-09-25T08:08:56.514Z,63.60
2022-09-25T08:11:23.958Z,63.57
2022-09-25T08:13:51.450Z,63.86
2022-09-25T08:16:20.877Z,62.85
2022-09-25T08:18:49.697Z,62.49
2022-09-25T08:21:21.177Z,61.70
2022-09-25T08:23:53.778Z,61.88
2022-09-25T08:26:22.203Z,60.94
2022-09-25T08:28:52.187Z,59.55
2022-09-25T08:31:20.115Z,59.54
2022-09-25T08:34:40.445Z,58.96
2022-09-25T08:37:10.266Z,58.93
2022-09-25T08:39:37.703Z,59.19
2022-09-25T08:42:05.310Z,58.63
2022-09-25T08:45:19.455Z,59.00
2022-09-25T08:48:00.275Z,59.58
2022-09-25T08:50:29.901Z,59.00
2022-09-25T08:53:11.387Z,58.73
2022-09-25T08:56:00.649Z,57.37
2022-09-25T08:58:32.538Z,56.57
2022-09-25T09:01:07.535Z,55.81
2022-09-25T09:03:50.917Z,55.88
2022-09-25T09:06:19.038Z,54.72
2022-09-25T09:08:55.355Z,54.67
2022-09-25T09:11:31.072Z,54.63
2022-09-25T09:14:16.094Z,54.28
2022-09-25T09:17:00.954Z,53.53
2022-09-25T09:19:29.069Z,53.32
2022-09-25T09:22:26.978Z,52.93
2022-09-25T09:25:14.774Z,51.59
2022-09-25T09:28:16.437Z,51.68
2022-09-25T09:30:46.355Z,50.16
2022-09-25T09:33:51.336Z,50.34
2022-09-25T09:36:43.058Z,50.05
2022-09-25T09:39:35.283Z,49.36
2022-09-25T09:42:22.008Z,47.89
2022-09-25T09:44:58.771Z,48.51
2022-09-25T09:48:02.440Z,47.28
2022-09-25T09:50:43.360Z,46.35
2022-09-25T09:53:44.242Z,45.18
2022-09-25T09:56:26.018Z,43.50
2022-09-25T09:58:57.292Z,45.60
2022-09-25T10:01:40.932Z,45.36
2022-09-25T10:04:18.291Z,43.43
2022-09-25T10:06:54.001Z,42.81
2022-09-25T10:09:21.118Z,42.65
2022-09-25T10:11:54.203Z,42.32
2022-09-25T10:14:25.093Z,41.41
2022-09-25T10:16:53.984Z,41.50
2022-09-25T10:19:25.261Z,41.78
2022-09-25T10:22:03.419Z,40.67
2022-09-25T10:24:51.444Z,40.20
2022-09-25T10:27:28.534Z,41.28
2022-09-25T10:30:11.260Z,41.18
2022-09-25T10:33:01.912Z,39.16
2022-09-25T10:35:42.318Z,39.16
2022-09-25T10:38:48.338Z,41.19
2022-09-25T10:41:25.779Z,39.77
2022-09-25T10:44:03.222Z,40.85
2022-09-25T10:46:54.425Z,40.09
2022-09-25T10:49:42.837Z,37.96
2022-09-25T10:52:12.220Z,38.23
2022-09-25T10:54:44.762Z,39.27
2022-09-25T11:00:04.115Z,38.81
2022-09-25T11:02:45.789Z,39.18
2022-09-25T11:05:36.023Z,39.72
2022-09-25T11:08:06.657Z,37.63
2022-09-25T11:12:18.754Z,38.62
2022-09-25T11:14:59.160Z,38.66
2022-09-25T11:17:43.346Z,36.53
2022-09-25T11:20:16.733Z,38.40
2022-09-25T11:22:57.223Z,38.56
2022-09-25T11:25:49.556Z,38.33
2022-09-25T11:28:25.364Z,38.73
2022-09-25T11:31:02.975Z,38.01
2022-09-25T11:33:43.251Z,37.79
2022-09-25T11:36:26.203Z,37.64
2022-09-25T11:39:30.313Z,37.81
2022-09-25T11:42:05.469Z,37.13
2022-09-25T11:45:08.327Z,37.85
2022-09-25T11:47:43.512Z,38.25
2022-09-25T11:50:16.471Z,38.08
2022-09-25T11:53:07.217Z,37.89
2022-09-25T11:55:52.677Z,36.31
2022-09-25T11:58:38.545Z,37.04
2022-09-25T12:01:27.201Z,36.93
2022-09-25T12:04:41.720Z,37.78
2022-09-25T12:07:30.431Z,37.16
2022-09-25T12:10:15.061Z,37.39
2022-09-25T12:12:59.229Z,37.38
2022-09-25T12:15:47.097Z,37.32
2022-09-25T12:18:24.190Z,36.59
2022-09-25T12:21:15.261Z,36.20
2022-09-25T12:23:52.468Z,35.70
2022-09-25T12:26:24.331Z,35.32
2022-09-25T12:28:57.481Z,35.50
2022-09-25T12:31:58.727Z,36.07
2022-09-25T12:34:28.859Z,36.29
2022-09-25T12:37:15.277Z,35.86
2022-09-25T12:39:52.389Z,35.85
2022-09-25T12:42:27.436Z,35.49
2022-09-25T12:45:13.313Z,35.48
2022-09-25T12:47:55.759Z,36.09
2022-09-25T12:50:30.661Z,34.83
2022-09-25T12:53:32.720Z,34.09
2022-09-25T12:56:13.400Z,34.48
2022-09-25T12:58:59.482Z,33.73
2022-09-25T13:01:47.599Z,33.71
2022-09-25T13:04:40.499Z,34.54
2022-09-25T13:07:38.420Z,35.18
2022-09-25T13:10:32.749Z,34.90
2022-09-25T13:13:08.143Z,35.53
2022-09-25T13:15:40.469Z,34.89
2022-09-25T13:18:16.841Z,35.36
2022-09-25T13:21:37.146Z,35.77
2022-09-25T13:24:09.479Z,35.35
2022-09-25T13:26:53.784Z,35.06
2022-09-25T13:29:28.865Z,35.22
2022-09-25T13:32:07.182Z,34.74
2022-09-25T13:34:38.939Z,34.82
2022-09-25T13:37:09.721Z,35.17
2022-09-25T13:40:05.068Z,34.96
2022-09-25T13:42:42.198Z,34.89
2022-09-25T13:45:32.789Z,34.86
2022-09-25T13:48:10.495Z,35.38
2022-09-25T13:50:39.866Z,34.96
2022-09-25T13:53:20.730Z,33.92
2022-09-25T13:55:50.667Z,32.43
2022-09-25T13:58:19.972Z,32.60
2022-09-25T14:00:50.436Z,32.13
2022-09-25T14:03:37.244Z,32.62
2022-09-25T14:06:05.446Z,31.88
2022-09-25T14:08:34.684Z,32.49
2022-09-25T14:11:07.736Z,31.77
2022-09-25T14:13:35.609Z,31.58
2022-09-25T14:16:09.238Z,31.27
2022-09-25T14:18:40.994Z,31.84
2022-09-25T14:21:10.058Z,32.96
2022-09-25T14:23:52.498Z,32.04
2022-09-25T14:26:28.203Z,31.32
2022-09-25T14:29:00.199Z,31.81
2022-09-25T14:31:33.451Z,31.71
2022-09-25T14:34:26.299Z,31.42
2022-09-25T14:37:06.029Z,30.07
2022-09-25T14:39:52.089Z,29.83
2022-09-25T14:42:41.469Z,29.32
2022-09-25T14:45:42.653Z,28.89
2022-09-25T14:48:25.074Z,29.01
2022-09-25T14:50:56.113Z,29.29
2022-09-25T14:53:32.753Z,29.78
2022-09-25T14:56:03.102Z,30.10
2022-09-25T14:58:33.031Z,30.20
2022-09-25T15:01:23.503Z,31.12
2022-09-25T15:03:51.334Z,31.39
2022-09-25T15:06:34.209Z,31.10
2022-09-25T15:09:03.297Z,31.46
2022-09-25T15:11:43.338Z,32.34
2022-09-25T15:14:16.682Z,34.07
2022-09-25T15:17:02.918Z,35.73
2022-09-25T15:19:45.674Z,36.11
2022-09-25T15:22:19.596Z,36.48
2022-09-25T15:24:54.298Z,36.39
2022-09-25T15:27:23.419Z,37.17
2022-09-25T15:29:51.700Z,37.53
2022-09-25T15:32:25.651Z,37.87
2022-09-25T15:35:17.640Z,38.38
2022-09-25T15:37:45.823Z,38.82
2022-09-25T15:40:18.564Z,39.32
2022-09-25T15:42:47.974Z,39.37
2022-09-25T15:45:44.448Z,39.72
2022-09-25T15:48:36.270Z,40.55
2022-09-25T15:51:21.712Z,40.76
2022-09-25T15:53:54.886Z,41.02
2022-09-25T15:56:51.286Z,41.20
2022-09-25T15:59:20.217Z,42.26
2022-09-25T16:02:07.719Z,42.07
2022-09-25T16:04:54.456Z,42.44
2022-09-25T16:07:30.140Z,42.62
2022-09-25T16:10:17.855Z,42.61
2022-09-25T16:12:49.498Z,43.13
2022-09-25T16:15:30.136Z,43.35
2022-09-25T16:18:05.721Z,43.75
2022-09-25T16:20:37.989Z,44.04
2022-09-25T16:23:16.996Z,44.33
2022-09-25T16:25:45.225Z,44.23
2022-09-25T16:28:20.466Z,44.55
2022-09-25T16:30:50.420Z,44.95
2022-09-25T16:33:27.525Z,45.19
2022-09-25T16:36:13.110Z,45.62
2022-09-25T16:39:03.430Z,45.88
2022-09-25T16:41:31.057Z,46.12
2022-09-25T16:44:14.900Z,46.11
2022-09-25T16:47:03.715Z,46.78
2022-09-25T16:49:33.791Z,46.83
2022-09-25T16:52:04.512Z,47.37
2022-09-25T16:54:32.807Z,47.73
2022-09-25T16:57:02.548Z,47.68
2022-09-25T16:59:30.478Z,48.05
2022-09-25T17:02:02.441Z,48.16
2022-09-25T17:04:31.197Z,48.69
2022-09-25T17:06:58.670Z,49.32
2022-09-25T17:09:31.747Z,49.64
2022-09-25T17:12:05.335Z,49.99
2022-09-25T17:14:32.554Z,50.79
2022-09-25T17:17:00.053Z,50.99
2022-09-25T17:19:27.842Z,51.53
2022-09-25T17:21:56.218Z,51.97
2022-09-25T17:24:26.925Z,51.98
2022-09-25T17:26:55.129Z,52.43
2022-09-25T17:29:22.707Z,52.70
2022-09-25T17:31:50.739Z,53.15
2022-09-25T17:34:21.116Z,53.31
2022-09-25T17:36:48.201Z,53.79
2022-09-25T17:39:15.378Z,54.37
2022-09-25T17:41:43.136Z,54.88
2022-09-25T17:44:28.901Z,55.59
2022-09-25T17:46:56.661Z,56.53
2022-09-25T17:49:25.316Z,56.86
2022-09-25T17:51:52.942Z,57.42
2022-09-25T17:54:20.911Z,58.08
2022-09-25T17:56:48.644Z,58.81
2022-09-25T17:59:16.045Z,59.21
2022-09-25T18:01:43.316Z,59.95
2022-09-25T18:04:36.557Z,60.49
2022-09-25T18:07:04.008Z,61.45
2022-09-25T18:09:31.272Z,61.67
2022-09-25T18:11:58.592Z,61.50
2022-09-25T18:14:26.183Z,62.01
2022-09-25T18:16:53.484Z,62.35
2022-09-25T18:19:40.013Z,62.51
2022-09-25T18:22:20.809Z,62.95
2022-09-25T18:24:53.054Z,63.25
2022-09-25T18:27:20.681Z,63.62
2022-09-25T18:29:47.712Z,64.21
2022-09-25T18:32:15.909Z,64.83
2022-09-25T18:34:43.303Z,65.41
2022-09-25T18:37:11.255Z,65.55
2022-09-25T18:39:39.012Z,65.54
2022-09-25T18:42:06.476Z,65.73
2022-09-25T18:44:38.534Z,66.17
2022-09-25T18:47:08.935Z,66.55
2022-09-25T18:49:38.060Z,66.90
2022-09-25T18:52:06.439Z,66.86
2022-09-25T18:54:34.277Z,66.58
2022-09-25T18:57:01.357Z,66.19
2022-09-25T18:59:28.427Z,66.75
2022-09-25T19:01:56.011Z,67.06
2022-09-25T19:04:23.714Z,67.84
2022-09-25T19:06:50.962Z,68.26
2022-09-25T19:09:18.836Z,68.81
2022-09-25T19:11:46.255Z,69.36
2022-09-25T19:14:14.997Z,69.34
2022-09-25T19:16:42.880Z,69.71
2022-09-25T19:19:11.392Z,69.55
2022-09-25T19:21:41.678Z,69.40
2022-09-25T19:24:09.508Z,70.08
2022-09-25T19:26:37.413Z,70.19
2022-09-25T19:29:05.406Z,70.08
2022-09-25T19:31:32.720Z,70.81
2022-09-25T19:34:02.406Z,71.69
2022-09-25T19:36:32.383Z,72.80
2022-09-25T19:39:01.011Z,72.65
2022-09-25T19:41:34.134Z,72.70
2022-09-25T19:44:12.763Z,72.58
2022-09-25T19:46:46.488Z,73.48
2022-09-25T19:49:16.341Z,73.37
2022-09-25T19:51:44.470Z,73.83
2022-09-25T19:54:14.978Z,74.57
2022-09-25T19:56:42.561Z,74.62
2022-09-25T19:59:14.298Z,75.03
2022-09-25T20:01:43.141Z,75.45
2022-09-25T20:04:17.177Z,75.72
2022-09-25T20:06:49.472Z,76.03
2022-09-25T20:09:21.495Z,76.31
2022-09-25T20:11:50.806Z,76.18
2022-09-25T20:14:25.798Z,77.37
2022-09-25T20:16:54.114Z,77.39
2022-09-25T20:19:30.476Z,77.48
2022-09-25T20:22:20.111Z,77.35
2022-09-25T20:24:48.018Z,77.44
2022-09-25T20:27:17.555Z,78.28
2022-09-25T20:30:12.864Z,78.51
2022-09-25T20:33:12.058Z,78.76
2022-09-25T20:36:10.841Z,79.55
2022-09-25T20:38:38.030Z,79.13
2022-09-25T20:41:07.808Z,78.82
2022-09-25T20:43:35.631Z,79.29
2022-09-25T20:46:07.184Z,79.15
2022-09-25T20:48:36.613Z,79.24
2022-09-25T20:51:05.258Z,79.68
2022-09-25T20:53:32.815Z,79.99
2022-09-25T20:56:13.384Z,80.16
2022-09-25T20:58:41.918Z,80.35
2022-09-25T21:01:12.779Z,80.66
2022-09-25T21:03:42.013Z,80.86
2022-09-25T21:06:13.725Z,81.24
2022-09-25T21:08:41.281Z,81.13
2022-09-25T21:11:10.510Z,80.96
2022-09-25T21:13:39.863Z,81.48
2022-09-25T21:16:09.981Z,81.41
2022-09-25T21:18:38.013Z,81.42
2022-09-25T21:21:08.119Z,81.50
2022-09-25T21:23:35.389Z,81.88
2022-09-25T21:26:10.204Z,82.71
2022-09-25T21:28:39.061Z,82.61
2022-09-25T21:31:18.222Z,82.10
2022-09-25T21:33:45.714Z,81.93
2022-09-25T21:36:15.475Z,81.77
2022-09-25T21:38:42.740Z,82.16
2022-09-25T21:41:13.517Z,82.81
2022-09-25T21:43:41.278Z,83.21
2022-09-25T21:46:18.464Z,82.43
2022-09-25T21:49:00.463Z,82.67
2022-09-25T21:51:31.122Z,82.82
2022-09-25T21:53:59.295Z,83.07
2022-09-25T21:56:27.898Z,83.92
2022-09-25T21:58:56.532Z,84.44
2022-09-25T22:01:27.177Z,84.93
2022-09-25T22:03:57.257Z,84.29
2022-09-25T22:06:31.009Z,83.69
2022-09-25T22:09:01.916Z,83.85
2022-09-25T22:11:29.722Z,84.34
2022-09-25T22:13:58.730Z,85.12
2022-09-25T22:16:30.479Z,85.48
2022-09-25T22:19:10.499Z,85.80
2022-09-25T22:21:38.652Z,86.25
2022-09-25T22:24:06.124Z,86.57
2022-09-25T22:26:36.728Z,86.52
2022-09-25T22:29:04.763Z,86.73
2022-09-25T22:31:33.800Z,86.84
2022-09-25T22:34:04.619Z,86.70
2022-09-25T22:36:33.650Z,86.87
2022-09-25T22:39:00.599Z,87.21
2022-09-25T22:41:27.789Z,87.60
2022-09-25T22:43:55.473Z,87.94
2022-09-25T22:46:24.452Z,88.51
2022-09-25T22:48:52.118Z,88.49
2022-09-25T22:51:24.307Z,88.40
2022-09-25T22:53:52.375Z,87.73
2022-09-25T22:56:23.168Z,87.46
2022-09-25T22:58:53.151Z,87.21
2022-09-25T23:01:33.737Z,87.55
2022-09-25T23:04:03.670Z,87.99
2022-09-25T23:06:32.475Z,87.84
2022-09-25T23:09:03.440Z,87.57
2022-09-25T23:11:30.916Z,87.13
2022-09-25T23:14:03.384Z,86.74
2022-09-25T23:16:32.297Z,87.71
2022-09-25T23:19:00.391Z,87.74
2022-09-25T23:21:29.773Z,87.62
2022-09-25T23:23:58.559Z,86.75
2022-09-25T23:26:26.466Z,87.62
2022-09-25T23:28:54.126Z,87.56
2022-09-25T23:31:22.142Z,87.72
2022-09-25T23:33:49.424Z,88.18
2022-09-25T23:36:20.403Z,88.31
2022-09-25T23:38:49.479Z,88.42
2022-09-25T23:41:37.918Z,88.34
2022-09-25T23:44:08.122Z,87.81
2022-09-25T23:46:38.469Z,87.38
2022-09-25T23:49:06.273Z,87.01
2022-09-25T23:51:33.900Z,87.51
2022-09-25T23:54:02.093Z,87.43
2022-09-25T23:56:32.315Z,87.55
2022-09-25T23:59:03.602Z,88.13
